Rentchler, Illinois
Current Conditions -  °F | °C
As of 10:13 AM on Sunday 23 Nov 2014 (Local Time) from KBLV Reporting Station
Light Rain Light Rain  
Wind Chill: 13°   Ceiling: 1400
Heat Index: 13°   Visibility: 10mi
Dew Point: 13°   Wind: 15mph
Humidity: 100%   Direction: 140°SE
Pressure: 29.65"   Gusts: NA
Location:  38.5093°N, 89.8955°W
Report Text: KBLV 231613Z AUTO 14013KT 10SM -RA OVC014 13/13 A2965 RMK AO2
Loading
Personal Weather Stations






























Interactive Weather Map New forecast layout! Learn more

10-Day Weather Forecast

Advertisements
Track Severe Weather on mobile